createdAt,value
2023-04-14T00:00:23.083Z,6.37
2023-04-14T00:02:49.684Z,6.29
2023-04-14T00:05:16.586Z,6.27
2023-04-14T00:07:43.103Z,6.17
2023-04-14T00:10:10.268Z,6.17
2023-04-14T00:12:36.759Z,6.14
2023-04-14T00:15:03.420Z,6.15
2023-04-14T00:17:31.063Z,6.11
2023-04-14T00:19:57.552Z,6.16
2023-04-14T00:22:23.999Z,6.22
2023-04-14T00:24:50.777Z,6.22
2023-04-14T00:27:17.293Z,6.14
2023-04-14T00:29:43.720Z,6.11
2023-04-14T00:32:10.176Z,5.95
2023-04-14T00:34:36.603Z,5.99
2023-04-14T00:37:03.069Z,6.01
2023-04-14T00:39:29.487Z,5.92
2023-04-14T00:41:56.747Z,5.79
2023-04-14T00:44:25.322Z,5.71
2023-04-14T00:46:52.854Z,5.57
2023-04-14T00:49:20.092Z,5.51
2023-04-14T00:51:48.054Z,5.37
2023-04-14T00:54:17.687Z,5.30
2023-04-14T00:56:45.503Z,5.23
2023-04-14T00:59:13.780Z,5.22
2023-04-14T01:01:41.324Z,5.23
2023-04-14T01:04:08.714Z,5.31
2023-04-14T01:06:36.473Z,5.45
2023-04-14T01:09:04.232Z,5.53
2023-04-14T01:11:47.630Z,5.53
2023-04-14T01:14:27.885Z,5.50
2023-04-14T01:17:01.664Z,5.32
2023-04-14T01:19:43.062Z,5.22
2023-04-14T01:22:12.640Z,5.21
2023-04-14T01:25:15.377Z,5.28
2023-04-14T01:28:06.533Z,5.25
2023-04-14T01:30:32.985Z,5.25
2023-04-14T01:33:04.476Z,5.27
2023-04-14T01:35:39.193Z,5.18
2023-04-14T01:38:14.817Z,4.90
2023-04-14T01:40:49.562Z,4.75
2023-04-14T01:43:17.493Z,4.78
2023-04-14T01:45:50.100Z,4.71
2023-04-14T01:48:17.471Z,4.70
2023-04-14T01:50:44.523Z,4.85
2023-04-14T01:53:13.371Z,4.75
2023-04-14T01:55:41.395Z,4.78
2023-04-14T01:58:09.813Z,4.65
2023-04-14T02:00:38.259Z,4.64
2023-04-14T02:03:06.352Z,4.61
2023-04-14T02:05:39.151Z,4.69
2023-04-14T02:08:10.204Z,4.71
2023-04-14T02:10:39.256Z,4.69
2023-04-14T02:13:07.417Z,4.60
2023-04-14T02:15:34.879Z,4.62
2023-04-14T02:18:04.509Z,4.67
2023-04-14T02:20:32.427Z,4.71
2023-04-14T02:23:00.252Z,4.65
2023-04-14T02:25:32.252Z,4.57
2023-04-14T02:28:08.784Z,4.62
2023-04-14T02:30:41.105Z,4.67
2023-04-14T02:33:10.736Z,4.62
2023-04-14T02:35:47.194Z,4.51
2023-04-14T02:38:31.100Z,4.53
2023-04-14T02:41:00.651Z,4.54
2023-04-14T02:43:32.259Z,4.51
2023-04-14T02:46:02.836Z,4.47
2023-04-14T02:48:33.283Z,4.45
2023-04-14T02:51:02.133Z,4.32
2023-04-14T02:53:29.540Z,4.29
2023-04-14T02:55:57.949Z,4.16
2023-04-14T02:58:25.537Z,4.14
2023-04-14T03:00:52.871Z,4.15
2023-04-14T03:03:19.779Z,4.06
2023-04-14T03:05:47.456Z,4.05
2023-04-14T03:08:15.998Z,4.06
2023-04-14T03:10:46.228Z,4.14
2023-04-14T03:13:14.451Z,4.17
2023-04-14T03:15:42.799Z,4.25
2023-04-14T03:18:10.418Z,4.23
2023-04-14T03:20:38.004Z,4.15
2023-04-14T03:23:07.762Z,4.09
2023-04-14T03:25:38.154Z,3.97
2023-04-14T03:28:09.503Z,3.88
2023-04-14T03:30:40.490Z,3.91
2023-04-14T03:33:09.051Z,3.95
2023-04-14T03:35:37.526Z,3.97
2023-04-14T03:38:09.084Z,3.96
2023-04-14T03:40:38.569Z,4.00
2023-04-14T03:43:09.765Z,4.05
2023-04-14T03:45:39.058Z,4.03
2023-04-14T03:48:09.906Z,3.86
2023-04-14T03:50:42.063Z,3.78
2023-04-14T03:53:12.654Z,3.87
2023-04-14T03:55:42.271Z,3.92
2023-04-14T03:58:10.982Z,4.03
2023-04-14T04:00:38.847Z,4.07
2023-04-14T04:03:06.184Z,4.11
2023-04-14T04:05:34.622Z,4.00
2023-04-14T04:08:03.193Z,3.76
2023-04-14T04:10:33.770Z,3.81
2023-04-14T04:13:08.006Z,3.79
2023-04-14T04:15:35.069Z,3.72
2023-04-14T04:18:03.366Z,3.65
2023-04-14T04:20:32.613Z,3.52
2023-04-14T04:23:01.666Z,3.62
2023-04-14T04:25:28.176Z,3.57
2023-04-14T04:27:54.873Z,3.65
2023-04-14T04:30:23.999Z,3.74
2023-04-14T04:32:51.283Z,3.68
2023-04-14T04:35:18.587Z,3.63
2023-04-14T04:37:46.253Z,3.56
2023-04-14T04:40:12.717Z,3.45
2023-04-14T04:42:43.348Z,3.42
2023-04-14T04:45:10.283Z,3.37
2023-04-14T04:47:36.834Z,3.38
2023-04-14T04:50:03.589Z,3.46
2023-04-14T04:52:30.226Z,3.57
2023-04-14T04:54:56.708Z,3.57
2023-04-14T04:57:23.115Z,3.52
2023-04-14T04:59:49.506Z,3.53
2023-04-14T05:02:16.374Z,3.49
2023-04-14T05:04:43.412Z,3.56
2023-04-14T05:07:09.835Z,3.59
2023-04-14T05:09:36.569Z,3.62
2023-04-14T05:12:03.299Z,3.72
2023-04-14T05:14:29.735Z,3.79
2023-04-14T05:16:56.964Z,3.79
2023-04-14T05:19:23.786Z,3.72
2023-04-14T05:21:50.518Z,3.71
2023-04-14T05:24:16.981Z,3.72
2023-04-14T05:29:12.820Z,3.68
2023-04-14T05:31:39.341Z,3.66
2023-04-14T05:34:06.068Z,3.67
2023-04-14T05:36:32.548Z,3.64
2023-04-14T05:38:59.036Z,3.59
2023-04-14T05:41:25.571Z,3.55
2023-04-14T05:43:52.009Z,3.58
2023-04-14T05:46:18.474Z,3.57
2023-04-14T05:48:44.952Z,3.53
2023-04-14T05:51:11.587Z,3.62
2023-04-14T05:53:38.002Z,3.75
2023-04-14T05:56:04.737Z,3.81
2023-04-14T05:58:31.156Z,3.89
2023-04-14T06:00:57.566Z,3.96
2023-04-14T06:03:24.272Z,4.05
2023-04-14T06:05:53.001Z,4.14
2023-04-14T06:08:20.352Z,4.19
2023-04-14T06:10:47.082Z,4.28
2023-04-14T06:13:13.635Z,4.38
2023-04-14T06:15:40.229Z,4.49
2023-04-14T06:18:06.802Z,4.59
2023-04-14T06:20:34.892Z,4.68
2023-04-14T06:23:01.355Z,4.77
2023-04-14T06:25:27.899Z,4.87
2023-04-14T06:27:54.368Z,4.96
2023-04-14T06:30:20.841Z,5.04
2023-04-14T06:32:48.670Z,5.16
2023-04-14T06:35:29.685Z,5.25
2023-04-14T06:37:59.130Z,5.35
2023-04-14T06:40:25.631Z,5.39
2023-04-14T06:42:52.233Z,5.43
2023-04-14T06:45:18.888Z,5.53
2023-04-14T06:47:45.499Z,5.62
2023-04-14T06:50:12.560Z,5.66
2023-04-14T06:52:39.100Z,5.72
2023-04-14T06:55:05.870Z,5.75
2023-04-14T06:57:32.383Z,5.78
2023-04-14T06:59:58.838Z,5.85
2023-04-14T07:02:25.511Z,5.87
2023-04-14T07:04:52.115Z,5.87
2023-04-14T07:07:18.628Z,5.97
2023-04-14T07:09:45.277Z,6.05
2023-04-14T07:12:15.896Z,6.09
2023-04-14T07:14:42.874Z,6.11
2023-04-14T07:17:09.601Z,6.14
2023-04-14T07:19:36.188Z,6.17
2023-04-14T07:22:02.693Z,6.20
2023-04-14T07:24:29.116Z,6.25
2023-04-14T07:26:55.580Z,6.29
2023-04-14T07:29:21.994Z,6.29
2023-04-14T07:31:48.578Z,6.26
2023-04-14T07:34:15.139Z,6.31
2023-04-14T07:36:41.582Z,6.32
2023-04-14T07:39:08.083Z,6.43
2023-04-14T07:41:34.547Z,6.49
2023-04-14T07:44:01.156Z,6.53
2023-04-14T07:46:27.871Z,6.59
2023-04-14T07:48:54.595Z,6.64
2023-04-14T07:51:21.405Z,6.64
2023-04-14T07:53:47.927Z,6.68
2023-04-14T07:56:15.093Z,6.72
2023-04-14T07:58:41.635Z,6.80
2023-04-14T08:01:08.297Z,6.89
2023-04-14T08:03:38.987Z,6.96
2023-04-14T08:06:07.528Z,6.98
2023-04-14T08:08:35.047Z,6.97
2023-04-14T08:11:01.594Z,7.02
2023-04-14T08:13:28.070Z,7.10
2023-04-14T08:15:54.596Z,7.14
2023-04-14T08:18:21.552Z,7.12
2023-04-14T08:20:48.805Z,7.15
2023-04-14T08:23:15.570Z,7.24
2023-04-14T08:25:42.486Z,7.34
2023-04-14T08:28:09.034Z,7.46
2023-04-14T08:30:35.770Z,7.52
2023-04-14T08:33:02.208Z,7.48
2023-04-14T08:35:41.018Z,7.50
2023-04-14T08:38:08.939Z,7.65
2023-04-14T08:40:39.132Z,7.71
2023-04-14T08:43:06.439Z,7.76
2023-04-14T08:45:33.341Z,7.80
2023-04-14T08:48:02.234Z,7.98
2023-04-14T08:50:36.230Z,7.91
2023-04-14T08:53:06.247Z,8.02
2023-04-14T08:55:33.685Z,7.99
2023-04-14T08:58:02.345Z,7.95
2023-04-14T09:00:29.057Z,7.96
2023-04-14T09:02:56.700Z,8.06
2023-04-14T09:05:23.830Z,8.34
2023-04-14T09:07:51.154Z,8.38
2023-04-14T09:10:17.810Z,8.54
2023-04-14T09:12:45.207Z,8.73
2023-04-14T09:15:12.247Z,8.69
2023-04-14T09:17:38.972Z,8.75
2023-04-14T09:20:36.891Z,8.64
2023-04-14T09:22:53.486Z,8.57
2023-04-14T09:25:21.069Z,8.52
2023-04-14T09:27:49.570Z,8.64
2023-04-14T09:30:17.674Z,9.01
2023-04-14T09:32:44.988Z,9.01
2023-04-14T09:35:13.940Z,9.06
2023-04-14T09:37:44.727Z,9.05
2023-04-14T09:40:11.947Z,9.16
2023-04-14T09:42:40.240Z,9.21
2023-04-14T09:45:08.292Z,9.15
2023-04-14T09:47:34.948Z,9.26
2023-04-14T09:50:03.664Z,9.53
2023-04-14T09:52:41.374Z,9.49
2023-04-14T09:55:13.663Z,9.68
2023-04-14T09:57:44.588Z,9.60
2023-04-14T10:00:21.690Z,9.50
2023-04-14T10:02:55.924Z,9.75
2023-04-14T10:05:27.208Z,10.01
2023-04-14T10:07:53.826Z,10.04
2023-04-14T10:10:20.348Z,10.06
2023-04-14T10:12:46.957Z,10.08
2023-04-14T10:15:15.373Z,10.15
2023-04-14T10:17:42.698Z,10.01
2023-04-14T10:20:10.287Z,9.98
2023-04-14T10:22:37.985Z,10.05
2023-04-14T10:25:07.069Z,10.15
2023-04-14T10:27:34.461Z,10.03
2023-04-14T10:30:01.676Z,10.19
2023-04-14T10:32:35.382Z,10.11
2023-04-14T10:35:07.447Z,10.17
2023-04-14T10:37:34.927Z,10.52
2023-04-14T10:40:05.487Z,10.38
2023-04-14T10:42:57.234Z,10.55
2023-04-14T10:45:23.968Z,10.39
2023-04-14T10:47:51.298Z,10.65
2023-04-14T10:50:22.440Z,10.74
2023-04-14T10:52:56.675Z,10.84
2023-04-14T10:55:28.009Z,10.89
2023-04-14T10:58:06.402Z,10.90
2023-04-14T11:00:38.707Z,10.97
2023-04-14T11:03:10.707Z,11.02
2023-04-14T11:05:48.138Z,10.95
2023-04-14T11:08:25.040Z,10.86
2023-04-14T11:11:02.297Z,11.06
2023-04-14T11:13:30.746Z,11.40
2023-04-14T11:16:05.113Z,11.34
2023-04-14T11:18:38.615Z,11.27
2023-04-14T11:21:06.742Z,11.15
2023-04-14T11:23:34.775Z,11.21
2023-04-14T11:26:01.987Z,11.34
2023-04-14T11:28:28.391Z,11.37
2023-04-14T11:30:57.269Z,11.45
2023-04-14T11:33:27.460Z,11.40
2023-04-14T11:35:54.332Z,11.45
2023-04-14T11:38:21.085Z,11.67
2023-04-14T11:40:51.869Z,11.63
2023-04-14T11:43:19.782Z,11.42
2023-04-14T11:45:48.622Z,11.70
2023-04-14T11:48:21.763Z,11.82
2023-04-14T11:50:48.612Z,11.97
2023-04-14T11:53:17.545Z,12.01
2023-04-14T11:55:46.592Z,11.94
2023-04-14T11:58:14.953Z,11.88
2023-04-14T12:00:43.070Z,12.01
2023-04-14T12:03:09.748Z,12.23
2023-04-14T12:05:37.570Z,12.28
2023-04-14T12:08:07.564Z,12.49
2023-04-14T12:10:34.881Z,12.66
2023-04-14T12:13:03.059Z,12.57
2023-04-14T12:15:34.643Z,12.57
2023-04-14T12:18:01.872Z,12.69
2023-04-14T12:20:30.552Z,13.17
2023-04-14T12:23:04.672Z,13.28
2023-04-14T12:25:33.011Z,13.54
2023-04-14T12:28:02.329Z,13.92
2023-04-14T12:30:29.568Z,14.27
2023-04-14T12:32:56.483Z,14.68
2023-04-14T12:35:23.931Z,15.01
2023-04-14T12:37:51.561Z,15.23
2023-04-14T12:40:36.613Z,15.45
2023-04-14T12:43:03.117Z,15.58
2023-04-14T12:45:40.014Z,15.61
2023-04-14T12:48:06.836Z,15.45
2023-04-14T12:50:33.947Z,15.65
2023-04-14T12:53:01.459Z,15.73
2023-04-14T12:55:30.226Z,15.74
2023-04-14T12:57:58.639Z,15.82
2023-04-14T13:00:27.591Z,15.80
2023-04-14T13:02:55.642Z,15.31
2023-04-14T13:05:22.654Z,15.02
2023-04-14T13:07:49.322Z,15.37
2023-04-14T13:10:15.921Z,14.98
2023-04-14T13:12:42.743Z,15.23
2023-04-14T13:15:09.837Z,14.74
2023-04-14T13:17:56.449Z,14.35
2023-04-14T13:20:22.943Z,15.32
2023-04-14T13:22:49.380Z,16.33
2023-04-14T13:25:16.002Z,16.78
2023-04-14T13:27:42.413Z,16.45
2023-04-14T13:30:09.421Z,15.51
2023-04-14T13:32:35.993Z,14.98
2023-04-14T13:35:02.584Z,14.72
2023-04-14T13:37:29.044Z,14.61
2023-04-14T13:39:55.540Z,14.87
2023-04-14T13:42:21.995Z,15.19
2023-04-14T13:44:48.538Z,15.80
2023-04-14T13:47:15.007Z,16.16
2023-04-14T13:49:41.459Z,16.48
2023-04-14T13:52:08.201Z,16.53
2023-04-14T13:54:35.373Z,16.64
2023-04-14T13:57:04.073Z,16.66
2023-04-14T13:59:30.514Z,16.63
2023-04-14T14:01:57.034Z,16.62
2023-04-14T14:04:23.943Z,16.57
2023-04-14T14:06:50.687Z,16.69
2023-04-14T14:09:17.118Z,16.73
2023-04-14T14:11:44.622Z,16.71
2023-04-14T14:14:12.773Z,16.69
2023-04-14T14:16:39.371Z,16.59
2023-04-14T14:19:08.201Z,16.53
2023-04-14T14:21:34.775Z,16.32
2023-04-14T14:24:01.530Z,16.08
2023-04-14T14:26:28.249Z,16.29
2023-04-14T14:28:54.668Z,16.40
2023-04-14T14:31:21.255Z,16.16
2023-04-14T14:33:47.939Z,16.15
2023-04-14T14:36:15.332Z,16.35
2023-04-14T14:38:41.786Z,16.41
2023-04-14T14:41:08.204Z,16.29
2023-04-14T14:43:35.035Z,16.34
2023-04-14T14:46:01.667Z,16.40
2023-04-14T14:48:28.239Z,16.40
2023-04-14T14:50:54.726Z,16.45
2023-04-14T14:53:21.132Z,16.65
2023-04-14T14:55:47.598Z,16.60
2023-04-14T14:58:14.027Z,16.16
2023-04-14T15:00:40.459Z,15.83
2023-04-14T15:03:07.101Z,15.67
2023-04-14T15:05:33.799Z,15.69
2023-04-14T15:08:00.721Z,15.72
2023-04-14T15:10:27.259Z,15.47
2023-04-14T15:12:53.816Z,15.36
2023-04-14T15:15:20.274Z,15.60
2023-04-14T15:17:46.949Z,15.82
2023-04-14T15:20:13.479Z,15.78
2023-04-14T15:22:40.003Z,15.82
2023-04-14T15:25:08.957Z,16.08
2023-04-14T15:27:35.648Z,16.29
2023-04-14T15:30:02.297Z,16.41
2023-04-14T15:32:28.867Z,16.43
2023-04-14T15:34:55.837Z,16.57
2023-04-14T15:37:22.357Z,16.58
2023-04-14T15:39:48.822Z,16.59
2023-04-14T15:42:15.582Z,16.73
2023-04-14T15:44:42.014Z,16.73
2023-04-14T15:47:08.440Z,16.72
2023-04-14T15:49:34.868Z,16.54
2023-04-14T15:52:01.866Z,16.49
2023-04-14T15:54:28.969Z,16.61
2023-04-14T15:56:55.419Z,16.62
2023-04-14T15:59:22.259Z,16.57
2023-04-14T16:01:48.877Z,16.14
2023-04-14T16:04:15.553Z,15.88
2023-04-14T16:06:42.090Z,15.87
2023-04-14T16:09:08.584Z,16.05
2023-04-14T16:11:35.068Z,16.26
2023-04-14T16:14:01.730Z,16.38
2023-04-14T16:16:28.623Z,16.51
2023-04-14T16:18:55.132Z,16.52
2023-04-14T16:21:21.595Z,16.29
2023-04-14T16:23:48.038Z,16.00
2023-04-14T16:26:16.075Z,15.70
2023-04-14T16:28:43.434Z,15.70
2023-04-14T16:31:09.908Z,15.88
2023-04-14T16:33:36.472Z,15.94
2023-04-14T16:36:04.129Z,16.01
2023-04-14T16:38:30.940Z,15.98
2023-04-14T16:40:58.788Z,15.83
2023-04-14T16:43:27.000Z,15.64
2023-04-14T16:46:00.088Z,15.48
2023-04-14T16:48:26.670Z,15.34
2023-04-14T16:50:53.883Z,15.24
2023-04-14T16:53:20.365Z,15.16
2023-04-14T16:55:46.830Z,15.11
2023-04-14T16:58:13.294Z,15.09
2023-04-14T17:00:39.900Z,15.02
2023-04-14T17:03:06.946Z,15.03
2023-04-14T17:05:33.718Z,15.03
2023-04-14T17:08:00.334Z,15.13
2023-04-14T17:10:28.924Z,15.24
2023-04-14T17:12:55.401Z,15.33
2023-04-14T17:15:21.923Z,15.41
2023-04-14T17:17:48.446Z,15.39
2023-04-14T17:20:15.376Z,15.27
2023-04-14T17:22:42.505Z,15.07
2023-04-14T17:25:10.662Z,14.98
2023-04-14T17:27:37.903Z,14.92
2023-04-14T17:30:05.361Z,14.88
2023-04-14T17:32:32.519Z,14.85
2023-04-14T17:34:59.733Z,14.85
2023-04-14T17:37:26.639Z,14.82
2023-04-14T17:39:53.199Z,14.81
2023-04-14T17:42:19.645Z,14.69
2023-04-14T17:44:46.047Z,14.58
2023-04-14T17:47:15.660Z,14.49
2023-04-14T17:49:42.977Z,14.41
2023-04-14T17:52:11.004Z,14.36
2023-04-14T17:54:37.559Z,14.28
2023-04-14T17:57:04.387Z,14.23
2023-04-14T17:59:31.530Z,14.13
2023-04-14T18:01:58.591Z,14.07
2023-04-14T18:04:25.463Z,14.01
2023-04-14T18:06:52.075Z,13.90
2023-04-14T18:09:18.565Z,13.83
2023-04-14T18:11:45.286Z,13.79
2023-04-14T18:14:11.725Z,13.70
2023-04-14T18:16:38.975Z,13.62
2023-04-14T18:19:06.006Z,13.55
2023-04-14T18:21:32.465Z,13.45
2023-04-14T18:26:29.749Z,13.28
2023-04-14T18:28:56.945Z,13.25
2023-04-14T18:31:23.647Z,13.15
2023-04-14T18:33:50.974Z,13.07
2023-04-14T18:36:17.639Z,13.00
2023-04-14T18:38:44.067Z,12.91
2023-04-14T18:41:10.484Z,12.86
2023-04-14T18:43:36.948Z,12.78
2023-04-14T18:46:03.875Z,12.70
2023-04-14T18:48:30.403Z,12.61
2023-04-14T18:51:07.948Z,12.57
2023-04-14T18:53:34.692Z,12.50
2023-04-14T18:56:01.737Z,12.48
2023-04-14T18:58:30.228Z,12.36
2023-04-14T19:00:57.294Z,12.36
2023-04-14T19:03:24.134Z,12.31
2023-04-14T19:05:50.900Z,12.27
2023-04-14T19:08:17.380Z,12.21
2023-04-14T19:10:47.709Z,12.16
2023-04-14T19:13:17.895Z,12.13
2023-04-14T19:15:44.424Z,12.12
2023-04-14T19:18:11.470Z,12.07
2023-04-14T19:20:38.531Z,11.99
2023-04-14T19:23:05.066Z,11.92
2023-04-14T19:25:31.545Z,11.88
2023-04-14T19:27:59.712Z,11.77
2023-04-14T19:30:26.190Z,11.70
2023-04-14T19:32:54.420Z,11.58
2023-04-14T19:35:22.402Z,11.52
2023-04-14T19:37:48.842Z,11.50
2023-04-14T19:40:15.330Z,11.43
2023-04-14T19:42:42.098Z,11.40
2023-04-14T19:45:10.170Z,11.40
2023-04-14T19:47:36.695Z,11.36
2023-04-14T19:50:04.360Z,11.38
2023-04-14T19:52:30.860Z,11.29
2023-04-14T19:54:58.125Z,11.31
2023-04-14T19:57:24.751Z,11.26
2023-04-14T19:59:51.173Z,11.16
2023-04-14T20:02:17.976Z,11.11
2023-04-14T20:04:45.108Z,11.05
2023-04-14T20:07:11.643Z,11.03
2023-04-14T20:09:39.766Z,11.01
2023-04-14T20:12:06.237Z,10.98
2023-04-14T20:14:32.983Z,10.95
2023-04-14T20:16:59.607Z,10.90
2023-04-14T20:19:26.184Z,10.84
2023-04-14T20:21:52.614Z,10.78
2023-04-14T20:24:19.947Z,10.69
2023-04-14T20:26:46.471Z,10.63
2023-04-14T20:29:12.905Z,10.60
2023-04-14T20:31:41.520Z,10.59
2023-04-14T20:34:08.914Z,10.54
2023-04-14T20:36:36.170Z,10.43
2023-04-14T20:39:05.540Z,10.29
2023-04-14T20:41:33.889Z,10.03
2023-04-14T20:44:00.675Z,9.87
2023-04-14T20:46:27.918Z,9.85
2023-04-14T20:48:54.766Z,9.88
2023-04-14T20:51:21.346Z,9.81
2023-04-14T20:53:47.802Z,9.62
2023-04-14T20:56:14.295Z,9.52
2023-04-14T20:58:40.755Z,9.55
2023-04-14T21:01:07.341Z,9.50
2023-04-14T21:03:34.607Z,9.41
2023-04-14T21:06:01.676Z,9.32
2023-04-14T21:08:29.702Z,9.24
2023-04-14T21:11:15.678Z,9.19
2023-04-14T21:15:44.296Z,9.08
2023-04-14T21:16:29.937Z,9.11
2023-04-14T21:18:57.059Z,9.12
2023-04-14T21:21:23.501Z,9.02
2023-04-14T21:23:50.041Z,9.12
2023-04-14T21:26:16.641Z,9.13
2023-04-14T21:28:43.126Z,9.11
2023-04-14T21:31:10.433Z,9.13
2023-04-14T21:33:39.391Z,9.07
2023-04-14T21:36:06.173Z,9.08
2023-04-14T21:38:33.447Z,9.07
2023-04-14T21:40:59.878Z,9.03
2023-04-14T21:43:26.765Z,9.06
2023-04-14T21:45:54.174Z,9.00
2023-04-14T21:48:20.786Z,8.90
2023-04-14T21:50:47.303Z,8.96
2023-04-14T21:53:13.920Z,8.95
2023-04-14T21:55:41.039Z,8.91
2023-04-14T21:58:07.541Z,8.89
2023-04-14T22:00:34.017Z,8.83
2023-04-14T22:03:00.641Z,8.78
2023-04-14T22:05:27.247Z,8.78
2023-04-14T22:07:54.990Z,8.69
2023-04-14T22:10:21.980Z,8.58
2023-04-14T22:12:48.505Z,8.55
2023-04-14T22:15:15.542Z,8.51
2023-04-14T22:17:42.190Z,8.57
2023-04-14T22:20:09.752Z,8.57
2023-04-14T22:22:36.537Z,8.64
2023-04-14T22:25:04.049Z,8.48
2023-04-14T22:27:33.010Z,8.44
2023-04-14T22:29:59.475Z,8.46
2023-04-14T22:32:26.249Z,8.38
2023-04-14T22:34:52.950Z,8.38
2023-04-14T22:37:19.480Z,8.27
2023-04-14T22:39:46.429Z,8.22
2023-04-14T22:42:13.124Z,8.15
2023-04-14T22:44:39.577Z,8.05
2023-04-14T22:47:06.146Z,8.02
2023-04-14T22:49:32.595Z,8.03
2023-04-14T22:51:59.009Z,7.99
2023-04-14T22:54:25.464Z,7.98
2023-04-14T22:56:52.227Z,7.87
2023-04-14T22:59:18.893Z,7.83
2023-04-14T23:01:45.434Z,7.87
2023-04-14T23:04:12.039Z,7.88
2023-04-14T23:06:38.613Z,7.82
2023-04-14T23:09:05.588Z,7.80
2023-04-14T23:11:32.674Z,7.79
2023-04-14T23:13:59.153Z,7.82
2023-04-14T23:16:25.705Z,7.76
2023-04-14T23:18:52.906Z,7.75
2023-04-14T23:21:23.307Z,7.71
2023-04-14T23:23:50.449Z,7.67
2023-04-14T23:26:19.346Z,7.66
2023-04-14T23:28:45.908Z,7.57
2023-04-14T23:31:12.429Z,7.53
2023-04-14T23:33:39.045Z,7.59
2023-04-14T23:36:06.909Z,7.57
2023-04-14T23:38:33.522Z,7.54
2023-04-14T23:41:00.417Z,7.49
2023-04-14T23:43:28.523Z,7.45
2023-04-14T23:45:55.801Z,7.40
2023-04-14T23:48:22.346Z,7.45
2023-04-14T23:51:00.869Z,7.49
2023-04-14T23:53:35.360Z,7.45
2023-04-14T23:56:04.185Z,7.46
2023-04-14T23:58:31.431Z,7.44
